sensor_id;sensor_type;location;lat;lon;timestamp;P1;durP1;ratioP1;P2;durP2;ratioP2
22113;SDS011;11223;49.968;9.062;2023-02-15T00:01:31;21.20;;;11.55;;
22113;SDS011;11223;49.968;9.062;2023-02-15T00:03:58;25.00;;;11.65;;
22113;SDS011;11223;49.968;9.062;2023-02-15T00:06:23;19.23;;;11.07;;
22113;SDS011;11223;49.968;9.062;2023-02-15T00:08:49;21.57;;;11.97;;
22113;SDS011;11223;49.968;9.062;2023-02-15T00:11:16;21.90;;;12.07;;
22113;SDS011;11223;49.968;9.062;2023-02-15T00:14:03;19.35;;;11.48;;
22113;SDS011;11223;49.968;9.062;2023-02-15T00:16:30;22.40;;;12.50;;
22113;SDS011;11223;49.968;9.062;2023-02-15T00:18:56;21.93;;;12.43;;
22113;SDS011;11223;49.968;9.062;2023-02-15T00:21:21;24.50;;;11.97;;
22113;SDS011;11223;49.968;9.062;2023-02-15T00:23:47;24.07;;;14.73;;
22113;SDS011;11223;49.968;9.062;2023-02-15T00:26:13;26.53;;;14.23;;
22113;SDS011;11223;49.968;9.062;2023-02-15T00:28:38;28.60;;;13.37;;
22113;SDS011;11223;49.968;9.062;2023-02-15T00:33:30;19.77;;;12.45;;
22113;SDS011;11223;49.968;9.062;2023-02-15T00:35:59;19.97;;;12.73;;
22113;SDS011;11223;49.968;9.062;2023-02-15T00:38:27;24.45;;;13.68;;
22113;SDS011;11223;49.968;9.062;2023-02-15T00:40:54;22.83;;;14.70;;
22113;SDS011;11223;49.968;9.062;2023-02-15T00:43:20;24.73;;;11.63;;
22113;SDS011;11223;49.968;9.062;2023-02-15T00:45:46;22.80;;;12.90;;
22113;SDS011;11223;49.968;9.062;2023-02-15T00:48:12;26.57;;;14.67;;
22113;SDS011;11223;49.968;9.062;2023-02-15T00:50:38;23.73;;;11.93;;
22113;SDS011;11223;49.968;9.062;2023-02-15T00:53:03;24.27;;;11.70;;
22113;SDS011;11223;49.968;9.062;2023-02-15T00:55:29;22.93;;;12.17;;
22113;SDS011;11223;49.968;9.062;2023-02-15T00:57:54;23.43;;;13.03;;
22113;SDS011;11223;49.968;9.062;2023-02-15T01:00:20;21.20;;;12.93;;
22113;SDS011;11223;49.968;9.062;2023-02-15T01:02:46;23.70;;;13.73;;
22113;SDS011;11223;49.968;9.062;2023-02-15T01:05:11;25.70;;;11.70;;
22113;SDS011;11223;49.968;9.062;2023-02-15T01:07:37;20.53;;;11.47;;
22113;SDS011;11223;49.968;9.062;2023-02-15T01:10:03;21.53;;;12.67;;
22113;SDS011;11223;49.968;9.062;2023-02-15T01:12:30;23.50;;;11.65;;
22113;SDS011;11223;49.968;9.062;2023-02-15T01:14:56;23.30;;;13.10;;
22113;SDS011;11223;49.968;9.062;2023-02-15T01:17:21;22.80;;;12.20;;
22113;SDS011;11223;49.968;9.062;2023-02-15T01:19:47;21.20;;;11.10;;
22113;SDS011;11223;49.968;9.062;2023-02-15T01:22:13;25.57;;;13.57;;
22113;SDS011;11223;49.968;9.062;2023-02-15T01:24:38;24.20;;;14.40;;
22113;SDS011;11223;49.968;9.062;2023-02-15T01:27:04;24.87;;;14.20;;
22113;SDS011;11223;49.968;9.062;2023-02-15T01:29:29;23.20;;;14.20;;
22113;SDS011;11223;49.968;9.062;2023-02-15T01:31:55;22.07;;;11.97;;
22113;SDS011;11223;49.968;9.062;2023-02-15T01:34:21;27.43;;;13.97;;
22113;SDS011;11223;49.968;9.062;2023-02-15T01:36:46;22.33;;;11.57;;
22113;SDS011;11223;49.968;9.062;2023-02-15T01:39:12;23.00;;;12.20;;
22113;SDS011;11223;49.968;9.062;2023-02-15T01:41:37;24.23;;;14.63;;
22113;SDS011;11223;49.968;9.062;2023-02-15T01:44:03;23.93;;;13.97;;
22113;SDS011;11223;49.968;9.062;2023-02-15T01:46:50;27.90;;;14.05;;
22113;SDS011;11223;49.968;9.062;2023-02-15T01:49:19;24.65;;;12.48;;
22113;SDS011;11223;49.968;9.062;2023-02-15T01:51:48;21.42;;;12.23;;
22113;SDS011;11223;49.968;9.062;2023-02-15T01:54:18;20.77;;;12.98;;
22113;SDS011;11223;49.968;9.062;2023-02-15T01:56:51;19.58;;;12.80;;
22113;SDS011;11223;49.968;9.062;2023-02-15T01:59:20;24.20;;;11.70;;
22113;SDS011;11223;49.968;9.062;2023-02-15T02:01:48;20.92;;;11.32;;
22113;SDS011;11223;49.968;9.062;2023-02-15T02:04:18;24.50;;;12.82;;
22113;SDS011;11223;49.968;9.062;2023-02-15T02:06:54;23.98;;;12.77;;
22113;SDS011;11223;49.968;9.062;2023-02-15T02:09:21;23.10;;;11.38;;
22113;SDS011;11223;49.968;9.062;2023-02-15T02:11:47;21.37;;;12.33;;
22113;SDS011;11223;49.968;9.062;2023-02-15T02:14:13;20.50;;;11.50;;
22113;SDS011;11223;49.968;9.062;2023-02-15T02:19:40;24.58;;;13.68;;
22113;SDS011;11223;49.968;9.062;2023-02-15T02:36:40;23.50;;;13.02;;
22113;SDS011;11223;49.968;9.062;2023-02-15T02:41:43;24.17;;;11.80;;
22113;SDS011;11223;49.968;9.062;2023-02-15T02:49:29;21.58;;;11.40;;
22113;SDS011;11223;49.968;9.062;2023-02-15T02:52:31;20.15;;;11.68;;
22113;SDS011;11223;49.968;9.062;2023-02-15T02:55:01;24.15;;;12.77;;
22113;SDS011;11223;49.968;9.062;2023-02-15T02:57:29;22.08;;;12.77;;
22113;SDS011;11223;49.968;9.062;2023-02-15T02:59:57;20.38;;;12.38;;
22113;SDS011;11223;49.968;9.062;2023-02-15T03:02:26;22.20;;;11.77;;
22113;SDS011;11223;49.968;9.062;2023-02-15T03:04:58;22.55;;;11.93;;
22113;SDS011;11223;49.968;9.062;2023-02-15T03:07:28;21.77;;;12.30;;
22113;SDS011;11223;49.968;9.062;2023-02-15T03:09:57;16.95;;;11.15;;
22113;SDS011;11223;49.968;9.062;2023-02-15T03:14:57;19.08;;;11.15;;
22113;SDS011;11223;49.968;9.062;2023-02-15T03:17:36;19.98;;;11.07;;
22113;SDS011;11223;49.968;9.062;2023-02-15T03:20:11;17.20;;;10.18;;
22113;SDS011;11223;49.968;9.062;2023-02-15T03:22:51;22.77;;;12.45;;
22113;SDS011;11223;49.968;9.062;2023-02-15T03:25:39;20.45;;;11.77;;
22113;SDS011;11223;49.968;9.062;2023-02-15T03:28:11;22.27;;;12.30;;
22113;SDS011;11223;49.968;9.062;2023-02-15T03:30:42;19.88;;;11.50;;
22113;SDS011;11223;49.968;9.062;2023-02-15T03:33:11;22.17;;;12.20;;
22113;SDS011;11223;49.968;9.062;2023-02-15T03:38:34;21.15;;;10.45;;
22113;SDS011;11223;49.968;9.062;2023-02-15T03:41:07;23.02;;;10.15;;
22113;SDS011;11223;49.968;9.062;2023-02-15T03:43:54;19.65;;;11.07;;
22113;SDS011;11223;49.968;9.062;2023-02-15T03:46:28;20.65;;;11.43;;
22113;SDS011;11223;49.968;9.062;2023-02-15T03:49:08;24.92;;;12.75;;
22113;SDS011;11223;49.968;9.062;2023-02-15T03:51:44;16.83;;;10.40;;
22113;SDS011;11223;49.968;9.062;2023-02-15T03:54:14;17.65;;;11.02;;
22113;SDS011;11223;49.968;9.062;2023-02-15T03:57:03;19.63;;;11.50;;
22113;SDS011;11223;49.968;9.062;2023-02-15T03:59:48;21.25;;;10.90;;
22113;SDS011;11223;49.968;9.062;2023-02-15T04:02:39;18.35;;;10.60;;
22113;SDS011;11223;49.968;9.062;2023-02-15T04:05:15;18.17;;;10.23;;
22113;SDS011;11223;49.968;9.062;2023-02-15T04:07:41;18.73;;;10.40;;
22113;SDS011;11223;49.968;9.062;2023-02-15T04:10:07;21.47;;;12.43;;
22113;SDS011;11223;49.968;9.062;2023-02-15T04:12:51;24.23;;;12.07;;
22113;SDS011;11223;49.968;9.062;2023-02-15T04:15:16;20.33;;;10.63;;
22113;SDS011;11223;49.968;9.062;2023-02-15T04:18:02;18.90;;;11.98;;
22113;SDS011;11223;49.968;9.062;2023-02-15T04:20:28;26.95;;;11.27;;
22113;SDS011;11223;49.968;9.062;2023-02-15T04:23:12;19.52;;;10.95;;
22113;SDS011;11223;49.968;9.062;2023-02-15T04:25:56;19.50;;;10.95;;
22113;SDS011;11223;49.968;9.062;2023-02-15T04:28:22;21.67;;;10.13;;
22113;SDS011;11223;49.968;9.062;2023-02-15T04:30:47;22.33;;;11.07;;
22113;SDS011;11223;49.968;9.062;2023-02-15T04:33:13;23.23;;;13.10;;
22113;SDS011;11223;49.968;9.062;2023-02-15T04:35:38;17.70;;;10.20;;
22113;SDS011;11223;49.968;9.062;2023-02-15T04:38:04;18.37;;;11.43;;
22113;SDS011;11223;49.968;9.062;2023-02-15T04:40:30;22.67;;;10.80;;
22113;SDS011;11223;49.968;9.062;2023-02-15T04:42:55;20.10;;;11.67;;
22113;SDS011;11223;49.968;9.062;2023-02-15T04:45:21;16.43;;;9.67;;
22113;SDS011;11223;49.968;9.062;2023-02-15T04:47:46;20.07;;;10.27;;
22113;SDS011;11223;49.968;9.062;2023-02-15T04:50:12;20.13;;;11.73;;
22113;SDS011;11223;49.968;9.062;2023-02-15T04:52:38;18.73;;;11.00;;
22113;SDS011;11223;49.968;9.062;2023-02-15T04:55:04;17.00;;;10.20;;
22113;SDS011;11223;49.968;9.062;2023-02-15T04:57:30;20.88;;;11.52;;
22113;SDS011;11223;49.968;9.062;2023-02-15T04:59:55;20.53;;;10.60;;
22113;SDS011;11223;49.968;9.062;2023-02-15T05:02:22;19.88;;;11.82;;
22113;SDS011;11223;49.968;9.062;2023-02-15T05:04:47;16.73;;;9.57;;
22113;SDS011;11223;49.968;9.062;2023-02-15T05:07:13;19.37;;;10.57;;
22113;SDS011;11223;49.968;9.062;2023-02-15T05:09:39;18.25;;;11.75;;
22113;SDS011;11223;49.968;9.062;2023-02-15T05:12:05;18.80;;;11.33;;
22113;SDS011;11223;49.968;9.062;2023-02-15T05:14:31;19.73;;;10.73;;
22113;SDS011;11223;49.968;9.062;2023-02-15T05:16:56;19.47;;;12.07;;
22113;SDS011;11223;49.968;9.062;2023-02-15T05:19:25;24.45;;;12.82;;
22113;SDS011;11223;49.968;9.062;2023-02-15T05:21:51;21.27;;;11.83;;
22113;SDS011;11223;49.968;9.062;2023-02-15T05:24:16;21.90;;;13.40;;
22113;SDS011;11223;49.968;9.062;2023-02-15T05:27:00;22.75;;;11.90;;
22113;SDS011;11223;49.968;9.062;2023-02-15T05:29:44;23.15;;;11.30;;
22113;SDS011;11223;49.968;9.062;2023-02-15T05:32:12;21.60;;;11.83;;
22113;SDS011;11223;49.968;9.062;2023-02-15T05:34:38;20.67;;;10.70;;
22113;SDS011;11223;49.968;9.062;2023-02-15T05:37:03;21.73;;;12.77;;
22113;SDS011;11223;49.968;9.062;2023-02-15T05:39:29;19.50;;;11.27;;
22113;SDS011;11223;49.968;9.062;2023-02-15T05:41:57;23.63;;;13.30;;
22113;SDS011;11223;49.968;9.062;2023-02-15T05:44:26;23.33;;;15.25;;
22113;SDS011;11223;49.968;9.062;2023-02-15T05:46:51;19.33;;;10.20;;
22113;SDS011;11223;49.968;9.062;2023-02-15T05:49:17;43.83;;;29.53;;
22113;SDS011;11223;49.968;9.062;2023-02-15T05:51:42;24.03;;;13.73;;
22113;SDS011;11223;49.968;9.062;2023-02-15T05:54:08;16.67;;;11.57;;
22113;SDS011;11223;49.968;9.062;2023-02-15T05:56:34;16.33;;;9.63;;
22113;SDS011;11223;49.968;9.062;2023-02-15T05:58:59;17.07;;;10.57;;
22113;SDS011;11223;49.968;9.062;2023-02-15T06:01:25;25.57;;;16.50;;
22113;SDS011;11223;49.968;9.062;2023-02-15T06:03:50;31.77;;;19.40;;
22113;SDS011;11223;49.968;9.062;2023-02-15T06:06:17;17.60;;;11.27;;
22113;SDS011;11223;49.968;9.062;2023-02-15T06:08:43;25.13;;;11.63;;
22113;SDS011;11223;49.968;9.062;2023-02-15T06:11:08;19.80;;;12.03;;
22113;SDS011;11223;49.968;9.062;2023-02-15T06:13:34;19.50;;;10.33;;
22113;SDS011;11223;49.968;9.062;2023-02-15T06:16:00;24.97;;;13.63;;
22113;SDS011;11223;49.968;9.062;2023-02-15T06:18:26;25.93;;;13.80;;
22113;SDS011;11223;49.968;9.062;2023-02-15T06:20:51;21.60;;;12.57;;
22113;SDS011;11223;49.968;9.062;2023-02-15T06:23:17;20.23;;;10.50;;
22113;SDS011;11223;49.968;9.062;2023-02-15T06:25:44;22.80;;;11.33;;
22113;SDS011;11223;49.968;9.062;2023-02-15T06:28:10;23.75;;;9.48;;
22113;SDS011;11223;49.968;9.062;2023-02-15T06:30:36;21.30;;;11.80;;
22113;SDS011;11223;49.968;9.062;2023-02-15T06:33:01;20.67;;;12.00;;
22113;SDS011;11223;49.968;9.062;2023-02-15T06:35:27;18.90;;;12.07;;
22113;SDS011;11223;49.968;9.062;2023-02-15T06:37:53;16.03;;;9.63;;
22113;SDS011;11223;49.968;9.062;2023-02-15T06:40:18;21.10;;;9.07;;
22113;SDS011;11223;49.968;9.062;2023-02-15T06:42:44;19.00;;;11.10;;
22113;SDS011;11223;49.968;9.062;2023-02-15T06:45:10;19.90;;;11.43;;
22113;SDS011;11223;49.968;9.062;2023-02-15T06:47:36;20.95;;;11.02;;
22113;SDS011;11223;49.968;9.062;2023-02-15T06:50:02;23.05;;;10.23;;
22113;SDS011;11223;49.968;9.062;2023-02-15T06:52:30;22.45;;;10.85;;
22113;SDS011;11223;49.968;9.062;2023-02-15T06:54:56;19.60;;;9.60;;
22113;SDS011;11223;49.968;9.062;2023-02-15T06:57:22;22.27;;;11.37;;
22113;SDS011;11223;49.968;9.062;2023-02-15T06:59:47;24.40;;;11.40;;
22113;SDS011;11223;49.968;9.062;2023-02-15T07:02:13;18.60;;;11.10;;
22113;SDS011;11223;49.968;9.062;2023-02-15T07:04:39;20.35;;;11.45;;
22113;SDS011;11223;49.968;9.062;2023-02-15T07:07:08;22.40;;;10.07;;
22113;SDS011;11223;49.968;9.062;2023-02-15T07:09:34;20.40;;;9.93;;
22113;SDS011;11223;49.968;9.062;2023-02-15T07:12:00;22.33;;;11.50;;
22113;SDS011;11223;49.968;9.062;2023-02-15T07:14:44;27.50;;;11.50;;
22113;SDS011;11223;49.968;9.062;2023-02-15T07:17:09;22.23;;;11.00;;
22113;SDS011;11223;49.968;9.062;2023-02-15T07:19:35;24.43;;;12.07;;
22113;SDS011;11223;49.968;9.062;2023-02-15T07:22:00;35.93;;;13.43;;
22113;SDS011;11223;49.968;9.062;2023-02-15T07:24:26;26.10;;;12.10;;
22113;SDS011;11223;49.968;9.062;2023-02-15T07:26:51;22.70;;;12.83;;
22113;SDS011;11223;49.968;9.062;2023-02-15T07:29:17;22.50;;;12.40;;
22113;SDS011;11223;49.968;9.062;2023-02-15T07:31:43;25.97;;;12.30;;
22113;SDS011;11223;49.968;9.062;2023-02-15T07:34:10;32.95;;;18.30;;
22113;SDS011;11223;49.968;9.062;2023-02-15T07:36:36;31.80;;;15.80;;
22113;SDS011;11223;49.968;9.062;2023-02-15T07:39:01;26.10;;;14.60;;
22113;SDS011;11223;49.968;9.062;2023-02-15T07:41:28;27.55;;;15.80;;
22113;SDS011;11223;49.968;9.062;2023-02-15T07:43:53;26.70;;;14.90;;
22113;SDS011;11223;49.968;9.062;2023-02-15T07:46:19;33.60;;;14.70;;
22113;SDS011;11223;49.968;9.062;2023-02-15T07:48:45;25.58;;;14.88;;
22113;SDS011;11223;49.968;9.062;2023-02-15T07:51:12;28.60;;;14.47;;
22113;SDS011;11223;49.968;9.062;2023-02-15T07:53:39;28.70;;;14.15;;
22113;SDS011;11223;49.968;9.062;2023-02-15T07:56:06;28.50;;;15.57;;
22113;SDS011;11223;49.968;9.062;2023-02-15T07:58:37;33.70;;;15.98;;
22113;SDS011;11223;49.968;9.062;2023-02-15T08:03:55;23.95;;;14.77;;
22113;SDS011;11223;49.968;9.062;2023-02-15T08:06:22;29.58;;;14.68;;
22113;SDS011;11223;49.968;9.062;2023-02-15T08:08:49;25.45;;;12.98;;
22113;SDS011;11223;49.968;9.062;2023-02-15T08:11:19;19.70;;;9.57;;
22113;SDS011;11223;49.968;9.062;2023-02-15T08:16:40;19.93;;;10.23;;
22113;SDS011;11223;49.968;9.062;2023-02-15T08:19:12;22.98;;;12.10;;
22113;SDS011;11223;49.968;9.062;2023-02-15T08:21:43;23.88;;;11.45;;
22113;SDS011;11223;49.968;9.062;2023-02-15T08:24:17;18.30;;;10.60;;
22113;SDS011;11223;49.968;9.062;2023-02-15T08:26:45;19.45;;;11.65;;
22113;SDS011;11223;49.968;9.062;2023-02-15T08:29:13;23.58;;;11.20;;
22113;SDS011;11223;49.968;9.062;2023-02-15T08:31:40;18.40;;;11.52;;
22113;SDS011;11223;49.968;9.062;2023-02-15T08:34:07;27.23;;;13.32;;
22113;SDS011;11223;49.968;9.062;2023-02-15T08:36:34;20.25;;;10.30;;
22113;SDS011;11223;49.968;9.062;2023-02-15T08:39:01;24.87;;;11.07;;
22113;SDS011;11223;49.968;9.062;2023-02-15T08:41:29;19.25;;;10.93;;
22113;SDS011;11223;49.968;9.062;2023-02-15T08:43:58;24.30;;;13.75;;
22113;SDS011;11223;49.968;9.062;2023-02-15T08:46:26;22.45;;;13.10;;
22113;SDS011;11223;49.968;9.062;2023-02-15T08:48:55;22.23;;;11.18;;
22113;SDS011;11223;49.968;9.062;2023-02-15T08:51:24;22.00;;;12.68;;
22113;SDS011;11223;49.968;9.062;2023-02-15T08:53:52;25.15;;;13.20;;
22113;SDS011;11223;49.968;9.062;2023-02-15T08:56:20;21.63;;;11.57;;
22113;SDS011;11223;49.968;9.062;2023-02-15T08:58:47;21.95;;;10.90;;
22113;SDS011;11223;49.968;9.062;2023-02-15T09:01:20;16.17;;;11.87;;
22113;SDS011;11223;49.968;9.062;2023-02-15T09:03:52;19.10;;;10.65;;
22113;SDS011;11223;49.968;9.062;2023-02-15T09:06:24;21.63;;;13.95;;
22113;SDS011;11223;49.968;9.062;2023-02-15T09:08:51;19.92;;;10.85;;
22113;SDS011;11223;49.968;9.062;2023-02-15T09:11:18;27.25;;;13.10;;
22113;SDS011;11223;49.968;9.062;2023-02-15T09:13:58;19.20;;;12.73;;
22113;SDS011;11223;49.968;9.062;2023-02-15T09:16:26;20.40;;;11.68;;
22113;SDS011;11223;49.968;9.062;2023-02-15T09:18:53;24.88;;;12.60;;
22113;SDS011;11223;49.968;9.062;2023-02-15T09:21:20;24.77;;;14.47;;
22113;SDS011;11223;49.968;9.062;2023-02-15T09:23:48;20.45;;;13.05;;
22113;SDS011;11223;49.968;9.062;2023-02-15T09:26:16;18.90;;;11.52;;
22113;SDS011;11223;49.968;9.062;2023-02-15T09:28:44;19.40;;;12.00;;
22113;SDS011;11223;49.968;9.062;2023-02-15T09:31:15;20.42;;;12.60;;
22113;SDS011;11223;49.968;9.062;2023-02-15T09:33:43;21.10;;;12.02;;
22113;SDS011;11223;49.968;9.062;2023-02-15T09:36:17;20.60;;;11.45;;
22113;SDS011;11223;49.968;9.062;2023-02-15T09:38:45;19.38;;;11.77;;
22113;SDS011;11223;49.968;9.062;2023-02-15T09:43:59;20.77;;;11.60;;
22113;SDS011;11223;49.968;9.062;2023-02-15T09:49:03;19.52;;;11.73;;
22113;SDS011;11223;49.968;9.062;2023-02-15T09:52:02;18.45;;;10.85;;
22113;SDS011;11223;49.968;9.062;2023-02-15T09:57:49;18.67;;;12.27;;
22113;SDS011;11223;49.968;9.062;2023-02-15T10:00:45;22.38;;;13.70;;
22113;SDS011;11223;49.968;9.062;2023-02-15T10:06:02;17.02;;;10.13;;
22113;SDS011;11223;49.968;9.062;2023-02-15T10:11:32;15.07;;;10.40;;
22113;SDS011;11223;49.968;9.062;2023-02-15T10:25:21;18.05;;;10.52;;
22113;SDS011;11223;49.968;9.062;2023-02-15T10:28:17;20.20;;;11.85;;
22113;SDS011;11223;49.968;9.062;2023-02-15T10:30:49;15.88;;;11.00;;
22113;SDS011;11223;49.968;9.062;2023-02-15T10:35:55;18.70;;;10.73;;
22113;SDS011;11223;49.968;9.062;2023-02-15T10:39:00;17.42;;;12.10;;
22113;SDS011;11223;49.968;9.062;2023-02-15T11:00:41;20.83;;;11.98;;
22113;SDS011;11223;49.968;9.062;2023-02-15T11:03:39;18.55;;;12.48;;
22113;SDS011;11223;49.968;9.062;2023-02-15T11:06:12;19.73;;;12.05;;
22113;SDS011;11223;49.968;9.062;2023-02-15T11:08:45;15.05;;;10.00;;
22113;SDS011;11223;49.968;9.062;2023-02-15T11:11:15;19.17;;;11.05;;
22113;SDS011;11223;49.968;9.062;2023-02-15T11:13:53;20.92;;;12.43;;
22113;SDS011;11223;49.968;9.062;2023-02-15T11:16:27;17.95;;;12.63;;
22113;SDS011;11223;49.968;9.062;2023-02-15T11:19:09;15.45;;;9.90;;
22113;SDS011;11223;49.968;9.062;2023-02-15T11:21:45;16.42;;;11.57;;
22113;SDS011;11223;49.968;9.062;2023-02-15T11:24:16;20.00;;;13.10;;
22113;SDS011;11223;49.968;9.062;2023-02-15T11:26:44;18.20;;;11.07;;
22113;SDS011;11223;49.968;9.062;2023-02-15T11:32:12;14.75;;;10.93;;
22113;SDS011;11223;49.968;9.062;2023-02-15T11:34:52;18.00;;;12.40;;
22113;SDS011;11223;49.968;9.062;2023-02-15T11:40:30;15.15;;;10.20;;
22113;SDS011;11223;49.968;9.062;2023-02-15T11:43:02;16.45;;;12.00;;
22113;SDS011;11223;49.968;9.062;2023-02-15T11:45:32;16.58;;;11.80;;
22113;SDS011;11223;49.968;9.062;2023-02-15T11:47:59;14.95;;;10.45;;
22113;SDS011;11223;49.968;9.062;2023-02-15T11:50:29;14.98;;;11.40;;
22113;SDS011;11223;49.968;9.062;2023-02-15T11:53:01;15.15;;;10.35;;
22113;SDS011;11223;49.968;9.062;2023-02-15T11:55:29;14.10;;;10.55;;
22113;SDS011;11223;49.968;9.062;2023-02-15T11:58:02;14.02;;;9.93;;
22113;SDS011;11223;49.968;9.062;2023-02-15T12:00:50;14.57;;;10.13;;
22113;SDS011;11223;49.968;9.062;2023-02-15T12:03:22;16.23;;;10.07;;
22113;SDS011;11223;49.968;9.062;2023-02-15T12:05:56;15.60;;;11.80;;
22113;SDS011;11223;49.968;9.062;2023-02-15T12:08:29;15.80;;;11.75;;
22113;SDS011;11223;49.968;9.062;2023-02-15T12:11:09;17.40;;;12.45;;
22113;SDS011;11223;49.968;9.062;2023-02-15T12:13:59;14.35;;;10.68;;
22113;SDS011;11223;49.968;9.062;2023-02-15T12:16:31;16.48;;;10.85;;
22113;SDS011;11223;49.968;9.062;2023-02-15T12:21:53;14.00;;;10.43;;
22113;SDS011;11223;49.968;9.062;2023-02-15T12:24:21;16.47;;;11.53;;
22113;SDS011;11223;49.968;9.062;2023-02-15T12:27:23;17.23;;;10.20;;
22113;SDS011;11223;49.968;9.062;2023-02-15T12:29:42;14.52;;;11.13;;
22113;SDS011;11223;49.968;9.062;2023-02-15T12:32:25;17.73;;;11.13;;
22113;SDS011;11223;49.968;9.062;2023-02-15T12:35:07;19.05;;;13.07;;
22113;SDS011;11223;49.968;9.062;2023-02-15T12:37:38;17.88;;;12.35;;
22113;SDS011;11223;49.968;9.062;2023-02-15T12:40:20;14.40;;;11.53;;
22113;SDS011;11223;49.968;9.062;2023-02-15T12:42:48;16.48;;;11.40;;
22113;SDS011;11223;49.968;9.062;2023-02-15T12:45:27;13.30;;;10.70;;
22113;SDS011;11223;49.968;9.062;2023-02-15T12:50:52;12.93;;;10.82;;
22113;SDS011;11223;49.968;9.062;2023-02-15T12:53:34;16.38;;;11.60;;
22113;SDS011;11223;49.968;9.062;2023-02-15T12:56:02;14.70;;;11.70;;
22113;SDS011;11223;49.968;9.062;2023-02-15T12:58:30;13.07;;;10.48;;
22113;SDS011;11223;49.968;9.062;2023-02-15T13:06:30;15.32;;;10.60;;
22113;SDS011;11223;49.968;9.062;2023-02-15T13:09:14;18.40;;;10.90;;
22113;SDS011;11223;49.968;9.062;2023-02-15T13:11:43;16.77;;;11.98;;
22113;SDS011;11223;49.968;9.062;2023-02-15T13:14:17;13.20;;;9.77;;
22113;SDS011;11223;49.968;9.062;2023-02-15T13:16:46;13.15;;;9.95;;
22113;SDS011;11223;49.968;9.062;2023-02-15T13:19:20;15.85;;;10.93;;
22113;SDS011;11223;49.968;9.062;2023-02-15T13:22:10;14.68;;;10.60;;
22113;SDS011;11223;49.968;9.062;2023-02-15T13:24:41;16.55;;;11.82;;
22113;SDS011;11223;49.968;9.062;2023-02-15T13:27:20;12.90;;;9.70;;
22113;SDS011;11223;49.968;9.062;2023-02-15T13:29:52;12.13;;;9.68;;
22113;SDS011;11223;49.968;9.062;2023-02-15T13:32:36;15.45;;;11.82;;
22113;SDS011;11223;49.968;9.062;2023-02-15T13:35:05;15.40;;;11.35;;
22113;SDS011;11223;49.968;9.062;2023-02-15T13:46:00;14.60;;;10.48;;
22113;SDS011;11223;49.968;9.062;2023-02-15T13:48:56;16.67;;;10.32;;
22113;SDS011;11223;49.968;9.062;2023-02-15T13:54:30;13.43;;;10.82;;
22113;SDS011;11223;49.968;9.062;2023-02-15T13:57:26;13.95;;;11.20;;
22113;SDS011;11223;49.968;9.062;2023-02-15T14:00:16;11.93;;;10.00;;
22113;SDS011;11223;49.968;9.062;2023-02-15T14:11:37;13.50;;;10.98;;
22113;SDS011;11223;49.968;9.062;2023-02-15T14:14:30;15.38;;;10.77;;
22113;SDS011;11223;49.968;9.062;2023-02-15T14:17:23;16.73;;;11.60;;
22113;SDS011;11223;49.968;9.062;2023-02-15T14:20:36;13.40;;;11.13;;
22113;SDS011;11223;49.968;9.062;2023-02-15T14:25:51;13.40;;;11.07;;
22113;SDS011;11223;49.968;9.062;2023-02-15T14:28:25;14.15;;;9.15;;
22113;SDS011;11223;49.968;9.062;2023-02-15T14:31:34;14.07;;;10.60;;
22113;SDS011;11223;49.968;9.062;2023-02-15T14:34:04;11.65;;;9.35;;
22113;SDS011;11223;49.968;9.062;2023-02-15T14:36:31;14.18;;;11.50;;
22113;SDS011;11223;49.968;9.062;2023-02-15T14:41:53;10.90;;;8.73;;
22113;SDS011;11223;49.968;9.062;2023-02-15T14:44:36;13.27;;;10.07;;
22113;SDS011;11223;49.968;9.062;2023-02-15T14:47:19;12.68;;;9.27;;
22113;SDS011;11223;49.968;9.062;2023-02-15T14:49:51;11.45;;;9.82;;
22113;SDS011;11223;49.968;9.062;2023-02-15T14:52:17;14.37;;;9.70;;
22113;SDS011;11223;49.968;9.062;2023-02-15T15:02:39;10.38;;;8.35;;
22113;SDS011;11223;49.968;9.062;2023-02-15T15:05:20;11.48;;;8.70;;
22113;SDS011;11223;49.968;9.062;2023-02-15T15:07:58;9.45;;;8.07;;
22113;SDS011;11223;49.968;9.062;2023-02-15T15:12:59;13.00;;;10.60;;
22113;SDS011;11223;49.968;9.062;2023-02-15T15:19:01;12.25;;;9.55;;
22113;SDS011;11223;49.968;9.062;2023-02-15T15:30:48;10.52;;;9.40;;
22113;SDS011;11223;49.968;9.062;2023-02-15T15:32:56;11.63;;;9.13;;
22113;SDS011;11223;49.968;9.062;2023-02-15T15:41:32;13.30;;;9.73;;
22113;SDS011;11223;49.968;9.062;2023-02-15T15:44:11;15.75;;;11.07;;
22113;SDS011;11223;49.968;9.062;2023-02-15T15:49:43;13.10;;;10.45;;
22113;SDS011;11223;49.968;9.062;2023-02-15T15:52:13;13.83;;;11.30;;
22113;SDS011;11223;49.968;9.062;2023-02-15T15:54:41;14.18;;;9.60;;
22113;SDS011;11223;49.968;9.062;2023-02-15T15:57:27;10.93;;;8.70;;
22113;SDS011;11223;49.968;9.062;2023-02-15T15:59:57;11.63;;;9.30;;
22113;SDS011;11223;49.968;9.062;2023-02-15T16:02:26;10.70;;;8.73;;
22113;SDS011;11223;49.968;9.062;2023-02-15T16:04:52;10.38;;;8.20;;
22113;SDS011;11223;49.968;9.062;2023-02-15T16:10:00;11.47;;;7.93;;
22113;SDS011;11223;49.968;9.062;2023-02-15T16:12:32;7.38;;;6.28;;
22113;SDS011;11223;49.968;9.062;2023-02-15T16:15:04;13.35;;;8.48;;
22113;SDS011;11223;49.968;9.062;2023-02-15T16:17:40;11.25;;;6.55;;
22113;SDS011;11223;49.968;9.062;2023-02-15T16:22:43;7.80;;;5.85;;
22113;SDS011;11223;49.968;9.062;2023-02-15T16:25:15;7.93;;;5.38;;
22113;SDS011;11223;49.968;9.062;2023-02-15T16:28:06;8.05;;;6.28;;
22113;SDS011;11223;49.968;9.062;2023-02-15T16:30:34;6.88;;;5.45;;
22113;SDS011;11223;49.968;9.062;2023-02-15T16:35:30;7.25;;;5.47;;
22113;SDS011;11223;49.968;9.062;2023-02-15T16:37:56;9.93;;;7.47;;
22113;SDS011;11223;49.968;9.062;2023-02-15T16:40:26;8.60;;;6.57;;
22113;SDS011;11223;49.968;9.062;2023-02-15T16:43:00;9.82;;;6.43;;
22113;SDS011;11223;49.968;9.062;2023-02-15T16:45:27;6.50;;;4.85;;
22113;SDS011;11223;49.968;9.062;2023-02-15T16:47:57;9.10;;;6.55;;
22113;SDS011;11223;49.968;9.062;2023-02-15T16:50:30;10.60;;;6.72;;
22113;SDS011;11223;49.968;9.062;2023-02-15T16:52:58;9.40;;;6.50;;
22113;SDS011;11223;49.968;9.062;2023-02-15T16:55:25;11.13;;;8.00;;
22113;SDS011;11223;49.968;9.062;2023-02-15T16:57:57;9.90;;;6.32;;
22113;SDS011;11223;49.968;9.062;2023-02-15T17:00:28;12.65;;;7.85;;
22113;SDS011;11223;49.968;9.062;2023-02-15T17:03:01;8.55;;;6.40;;
22113;SDS011;11223;49.968;9.062;2023-02-15T17:05:32;9.05;;;7.00;;
22113;SDS011;11223;49.968;9.062;2023-02-15T17:08:12;9.70;;;7.07;;
22113;SDS011;11223;49.968;9.062;2023-02-15T17:13:24;12.52;;;7.78;;
22113;SDS011;11223;49.968;9.062;2023-02-15T17:18:44;10.15;;;8.30;;
22113;SDS011;11223;49.968;9.062;2023-02-15T17:21:12;10.75;;;8.50;;
22113;SDS011;11223;49.968;9.062;2023-02-15T17:23:46;14.45;;;10.82;;
22113;SDS011;11223;49.968;9.062;2023-02-15T17:26:15;17.83;;;11.40;;
22113;SDS011;11223;49.968;9.062;2023-02-15T17:28:58;29.08;;;16.30;;
22113;SDS011;11223;49.968;9.062;2023-02-15T17:31:28;22.55;;;13.77;;
22113;SDS011;11223;49.968;9.062;2023-02-15T17:33:57;19.45;;;13.10;;
22113;SDS011;11223;49.968;9.062;2023-02-15T17:36:25;21.23;;;13.95;;
22113;SDS011;11223;49.968;9.062;2023-02-15T17:41:26;19.58;;;13.00;;
22113;SDS011;11223;49.968;9.062;2023-02-15T17:43:53;18.67;;;11.95;;